Terminal Aerodrome Forecast
Issued by NWS Lake Charles, LA

Home | Current Version | Previous Version | Text Only | Print | Product List | Glossary On
Versions: 1 2 3 4 5 6 7 8 9 10 11 12 13 14
873
FTUS44 KLCH 110520
TAFARA
TAF
KARA 110520Z 1106/1206 20005KT P6SM SKC
     FM111500 24012G23KT P6SM SKC
     FM120100 20006KT P6SM SKC=

USA.gov is the U.S. government's official web portal to all federal, state and local government web resources and services.